sensor_id;sensor_type;location;lat;lon;timestamp;P1;durP1;ratioP1;P2;durP2;ratioP2
74465;SDS011;62916;50.044;15.938;2024-02-28T00:00:10;8.50;;;6.20;;
74465;SDS011;62916;50.044;15.938;2024-02-28T00:02:42;8.80;;;6.20;;
74465;SDS011;62916;50.044;15.938;2024-02-28T00:05:13;8.30;;;6.70;;
74465;SDS011;62916;50.044;15.938;2024-02-28T00:07:44;10.20;;;6.70;;
74465;SDS011;62916;50.044;15.938;2024-02-28T00:10:15;8.70;;;6.20;;
74465;SDS011;62916;50.044;15.938;2024-02-28T00:12:46;8.90;;;6.30;;
74465;SDS011;62916;50.044;15.938;2024-02-28T00:15:17;10.40;;;6.20;;
74465;SDS011;62916;50.044;15.938;2024-02-28T00:17:51;9.00;;;6.40;;
74465;SDS011;62916;50.044;15.938;2024-02-28T00:20:23;8.60;;;6.20;;
74465;SDS011;62916;50.044;15.938;2024-02-28T00:22:56;9.10;;;6.30;;
74465;SDS011;62916;50.044;15.938;2024-02-28T00:25:26;9.30;;;6.30;;
74465;SDS011;62916;50.044;15.938;2024-02-28T00:27:57;8.90;;;6.50;;
74465;SDS011;62916;50.044;15.938;2024-02-28T00:30:28;8.20;;;6.60;;
74465;SDS011;62916;50.044;15.938;2024-02-28T00:33:01;8.20;;;5.90;;
74465;SDS011;62916;50.044;15.938;2024-02-28T00:35:32;9.40;;;6.90;;
74465;SDS011;62916;50.044;15.938;2024-02-28T00:38:06;8.60;;;7.10;;
74465;SDS011;62916;50.044;15.938;2024-02-28T00:40:37;8.70;;;6.10;;
74465;SDS011;62916;50.044;15.938;2024-02-28T00:43:08;8.60;;;6.30;;
74465;SDS011;62916;50.044;15.938;2024-02-28T00:45:38;9.10;;;7.10;;
74465;SDS011;62916;50.044;15.938;2024-02-28T00:48:09;8.10;;;6.20;;
74465;SDS011;62916;50.044;15.938;2024-02-28T00:50:40;8.90;;;6.90;;
74465;SDS011;62916;50.044;15.938;2024-02-28T00:53:11;8.00;;;5.90;;
74465;SDS011;62916;50.044;15.938;2024-02-28T00:55:42;8.90;;;6.60;;
74465;SDS011;62916;50.044;15.938;2024-02-28T00:58:13;8.80;;;6.50;;
74465;SDS011;62916;50.044;15.938;2024-02-28T01:00:44;9.10;;;6.70;;
74465;SDS011;62916;50.044;15.938;2024-02-28T01:03:16;8.60;;;6.60;;
74465;SDS011;62916;50.044;15.938;2024-02-28T01:05:48;10.10;;;6.50;;
74465;SDS011;62916;50.044;15.938;2024-02-28T01:08:19;8.40;;;6.70;;
74465;SDS011;62916;50.044;15.938;2024-02-28T01:10:50;10.20;;;6.70;;
74465;SDS011;62916;50.044;15.938;2024-02-28T01:13:21;8.70;;;6.20;;
74465;SDS011;62916;50.044;15.938;2024-02-28T01:15:52;9.20;;;7.30;;
74465;SDS011;62916;50.044;15.938;2024-02-28T01:18:23;9.60;;;6.70;;
74465;SDS011;62916;50.044;15.938;2024-02-28T01:20:54;9.20;;;6.40;;
74465;SDS011;62916;50.044;15.938;2024-02-28T01:23:24;10.30;;;6.60;;
74465;SDS011;62916;50.044;15.938;2024-02-28T01:25:55;9.60;;;6.60;;
74465;SDS011;62916;50.044;15.938;2024-02-28T01:28:26;8.40;;;6.10;;
74465;SDS011;62916;50.044;15.938;2024-02-28T01:30:57;9.40;;;7.00;;
74465;SDS011;62916;50.044;15.938;2024-02-28T01:33:29;9.30;;;6.50;;
74465;SDS011;62916;50.044;15.938;2024-02-28T01:36:00;7.70;;;6.30;;
74465;SDS011;62916;50.044;15.938;2024-02-28T01:38:31;8.90;;;6.70;;
74465;SDS011;62916;50.044;15.938;2024-02-28T01:41:02;9.50;;;6.80;;
74465;SDS011;62916;50.044;15.938;2024-02-28T01:43:34;9.10;;;6.50;;
74465;SDS011;62916;50.044;15.938;2024-02-28T01:46:08;9.20;;;6.20;;
74465;SDS011;62916;50.044;15.938;2024-02-28T01:48:49;9.10;;;6.20;;
74465;SDS011;62916;50.044;15.938;2024-02-28T01:51:20;9.50;;;6.50;;
74465;SDS011;62916;50.044;15.938;2024-02-28T01:53:53;8.70;;;6.40;;
74465;SDS011;62916;50.044;15.938;2024-02-28T01:56:25;9.60;;;7.00;;
74465;SDS011;62916;50.044;15.938;2024-02-28T01:58:56;8.50;;;7.10;;
74465;SDS011;62916;50.044;15.938;2024-02-28T02:01:28;9.80;;;6.20;;
74465;SDS011;62916;50.044;15.938;2024-02-28T02:03:59;8.00;;;6.90;;
74465;SDS011;62916;50.044;15.938;2024-02-28T02:06:29;9.50;;;6.20;;
74465;SDS011;62916;50.044;15.938;2024-02-28T02:09:02;8.80;;;6.60;;
74465;SDS011;62916;50.044;15.938;2024-02-28T02:11:33;8.90;;;6.30;;
74465;SDS011;62916;50.044;15.938;2024-02-28T02:14:05;9.90;;;6.30;;
74465;SDS011;62916;50.044;15.938;2024-02-28T02:16:35;9.30;;;6.40;;
74465;SDS011;62916;50.044;15.938;2024-02-28T02:19:06;9.40;;;6.70;;
74465;SDS011;62916;50.044;15.938;2024-02-28T02:21:40;10.00;;;6.40;;
74465;SDS011;62916;50.044;15.938;2024-02-28T02:24:16;9.00;;;6.60;;
74465;SDS011;62916;50.044;15.938;2024-02-28T02:26:47;9.10;;;6.40;;
74465;SDS011;62916;50.044;15.938;2024-02-28T02:29:20;8.20;;;6.50;;
74465;SDS011;62916;50.044;15.938;2024-02-28T02:31:50;8.30;;;6.30;;
74465;SDS011;62916;50.044;15.938;2024-02-28T02:34:21;8.40;;;6.20;;
74465;SDS011;62916;50.044;15.938;2024-02-28T02:36:52;7.80;;;5.50;;
74465;SDS011;62916;50.044;15.938;2024-02-28T02:39:23;8.50;;;6.50;;
74465;SDS011;62916;50.044;15.938;2024-02-28T02:41:53;8.50;;;6.40;;
74465;SDS011;62916;50.044;15.938;2024-02-28T02:44:24;8.90;;;5.80;;
74465;SDS011;62916;50.044;15.938;2024-02-28T02:46:55;8.40;;;6.30;;
74465;SDS011;62916;50.044;15.938;2024-02-28T02:49:26;8.00;;;6.80;;
74465;SDS011;62916;50.044;15.938;2024-02-28T02:51:57;9.50;;;6.60;;
74465;SDS011;62916;50.044;15.938;2024-02-28T02:54:28;8.80;;;6.50;;
74465;SDS011;62916;50.044;15.938;2024-02-28T02:57:00;9.40;;;6.70;;
74465;SDS011;62916;50.044;15.938;2024-02-28T02:59:31;9.60;;;6.30;;
74465;SDS011;62916;50.044;15.938;2024-02-28T03:02:02;8.30;;;6.50;;
74465;SDS011;62916;50.044;15.938;2024-02-28T03:04:33;8.80;;;6.20;;
74465;SDS011;62916;50.044;15.938;2024-02-28T03:07:04;9.70;;;6.80;;
74465;SDS011;62916;50.044;15.938;2024-02-28T03:09:35;8.80;;;6.50;;
74465;SDS011;62916;50.044;15.938;2024-02-28T03:12:06;9.20;;;6.40;;
74465;SDS011;62916;50.044;15.938;2024-02-28T03:14:38;10.30;;;7.00;;
74465;SDS011;62916;50.044;15.938;2024-02-28T03:17:09;8.50;;;7.00;;
74465;SDS011;62916;50.044;15.938;2024-02-28T03:19:40;9.40;;;6.60;;
74465;SDS011;62916;50.044;15.938;2024-02-28T03:22:12;8.40;;;6.50;;
74465;SDS011;62916;50.044;15.938;2024-02-28T03:24:43;9.50;;;6.20;;
74465;SDS011;62916;50.044;15.938;2024-02-28T03:27:15;9.20;;;6.90;;
74465;SDS011;62916;50.044;15.938;2024-02-28T03:29:45;10.00;;;6.80;;
74465;SDS011;62916;50.044;15.938;2024-02-28T03:32:17;9.50;;;6.50;;
74465;SDS011;62916;50.044;15.938;2024-02-28T03:34:48;8.70;;;6.50;;
74465;SDS011;62916;50.044;15.938;2024-02-28T03:37:19;8.00;;;6.20;;
74465;SDS011;62916;50.044;15.938;2024-02-28T03:39:50;10.10;;;6.60;;
74465;SDS011;62916;50.044;15.938;2024-02-28T03:42:21;7.70;;;6.30;;
74465;SDS011;62916;50.044;15.938;2024-02-28T03:44:52;9.80;;;6.80;;
74465;SDS011;62916;50.044;15.938;2024-02-28T03:47:23;9.60;;;6.60;;
74465;SDS011;62916;50.044;15.938;2024-02-28T03:49:54;8.70;;;6.30;;
74465;SDS011;62916;50.044;15.938;2024-02-28T03:52:27;8.90;;;6.40;;
74465;SDS011;62916;50.044;15.938;2024-02-28T03:54:58;9.80;;;6.70;;
74465;SDS011;62916;50.044;15.938;2024-02-28T03:57:29;9.30;;;6.60;;
74465;SDS011;62916;50.044;15.938;2024-02-28T04:00:02;8.30;;;6.20;;
74465;SDS011;62916;50.044;15.938;2024-02-28T04:02:33;8.80;;;6.20;;
74465;SDS011;62916;50.044;15.938;2024-02-28T04:05:05;8.40;;;6.20;;
74465;SDS011;62916;50.044;15.938;2024-02-28T04:07:37;8.90;;;6.80;;
74465;SDS011;62916;50.044;15.938;2024-02-28T04:10:08;9.70;;;7.00;;
74465;SDS011;62916;50.044;15.938;2024-02-28T04:12:39;8.50;;;6.00;;
74465;SDS011;62916;50.044;15.938;2024-02-28T04:15:13;8.50;;;6.70;;
74465;SDS011;62916;50.044;15.938;2024-02-28T04:17:44;8.10;;;6.00;;
74465;SDS011;62916;50.044;15.938;2024-02-28T04:20:15;8.50;;;6.40;;
74465;SDS011;62916;50.044;15.938;2024-02-28T04:22:45;9.40;;;6.10;;
74465;SDS011;62916;50.044;15.938;2024-02-28T04:25:16;8.40;;;6.50;;
74465;SDS011;62916;50.044;15.938;2024-02-28T04:27:47;9.70;;;6.30;;
74465;SDS011;62916;50.044;15.938;2024-02-28T04:30:18;9.40;;;7.00;;
74465;SDS011;62916;50.044;15.938;2024-02-28T04:32:49;9.50;;;6.10;;
74465;SDS011;62916;50.044;15.938;2024-02-28T04:35:20;9.00;;;6.30;;
74465;SDS011;62916;50.044;15.938;2024-02-28T04:37:51;8.30;;;5.90;;
74465;SDS011;62916;50.044;15.938;2024-02-28T04:40:22;8.50;;;6.40;;
74465;SDS011;62916;50.044;15.938;2024-02-28T04:42:52;9.70;;;6.80;;
74465;SDS011;62916;50.044;15.938;2024-02-28T04:45:23;8.00;;;6.00;;
74465;SDS011;62916;50.044;15.938;2024-02-28T04:47:54;8.20;;;6.70;;
74465;SDS011;62916;50.044;15.938;2024-02-28T04:50:26;9.10;;;6.70;;
74465;SDS011;62916;50.044;15.938;2024-02-28T04:52:57;10.30;;;6.70;;
74465;SDS011;62916;50.044;15.938;2024-02-28T04:55:27;8.70;;;6.50;;
74465;SDS011;62916;50.044;15.938;2024-02-28T04:57:58;8.50;;;5.50;;
74465;SDS011;62916;50.044;15.938;2024-02-28T05:00:30;9.80;;;6.10;;
74465;SDS011;62916;50.044;15.938;2024-02-28T05:03:01;7.70;;;6.00;;
74465;SDS011;62916;50.044;15.938;2024-02-28T05:05:32;8.90;;;6.10;;
74465;SDS011;62916;50.044;15.938;2024-02-28T05:08:03;9.40;;;6.70;;
74465;SDS011;62916;50.044;15.938;2024-02-28T05:10:34;9.00;;;6.80;;
74465;SDS011;62916;50.044;15.938;2024-02-28T05:13:07;11.90;;;7.30;;
74465;SDS011;62916;50.044;15.938;2024-02-28T05:15:38;10.70;;;7.20;;
74465;SDS011;62916;50.044;15.938;2024-02-28T05:18:09;11.30;;;8.10;;
74465;SDS011;62916;50.044;15.938;2024-02-28T05:20:39;15.20;;;8.90;;
74465;SDS011;62916;50.044;15.938;2024-02-28T05:23:10;13.30;;;7.90;;
74465;SDS011;62916;50.044;15.938;2024-02-28T05:25:41;20.50;;;8.10;;
74465;SDS011;62916;50.044;15.938;2024-02-28T05:28:12;18.10;;;8.60;;
74465;SDS011;62916;50.044;15.938;2024-02-28T05:30:43;17.60;;;8.80;;
74465;SDS011;62916;50.044;15.938;2024-02-28T05:33:17;15.00;;;8.20;;
74465;SDS011;62916;50.044;15.938;2024-02-28T05:35:48;21.20;;;8.70;;
74465;SDS011;62916;50.044;15.938;2024-02-28T05:38:19;13.90;;;7.40;;
74465;SDS011;62916;50.044;15.938;2024-02-28T05:40:50;14.40;;;8.00;;
74465;SDS011;62916;50.044;15.938;2024-02-28T05:43:21;13.90;;;7.20;;
74465;SDS011;62916;50.044;15.938;2024-02-28T05:45:51;15.00;;;7.70;;
74465;SDS011;62916;50.044;15.938;2024-02-28T05:48:22;17.20;;;9.00;;
74465;SDS011;62916;50.044;15.938;2024-02-28T05:50:53;16.00;;;9.10;;
74465;SDS011;62916;50.044;15.938;2024-02-28T05:53:25;13.00;;;7.80;;
74465;SDS011;62916;50.044;15.938;2024-02-28T05:55:55;12.00;;;6.80;;
74465;SDS011;62916;50.044;15.938;2024-02-28T05:58:26;10.40;;;7.00;;
74465;SDS011;62916;50.044;15.938;2024-02-28T06:00:57;14.40;;;7.80;;
74465;SDS011;62916;50.044;15.938;2024-02-28T06:03:29;11.90;;;6.90;;
74465;SDS011;62916;50.044;15.938;2024-02-28T06:05:59;12.60;;;7.60;;
74465;SDS011;62916;50.044;15.938;2024-02-28T06:08:33;11.60;;;7.10;;
74465;SDS011;62916;50.044;15.938;2024-02-28T06:11:07;11.90;;;6.60;;
74465;SDS011;62916;50.044;15.938;2024-02-28T06:13:39;10.80;;;7.10;;
74465;SDS011;62916;50.044;15.938;2024-02-28T06:16:14;14.00;;;8.50;;
74465;SDS011;62916;50.044;15.938;2024-02-28T06:18:46;11.90;;;7.20;;
74465;SDS011;62916;50.044;15.938;2024-02-28T06:21:17;12.40;;;7.50;;
74465;SDS011;62916;50.044;15.938;2024-02-28T06:23:50;11.40;;;6.70;;
74465;SDS011;62916;50.044;15.938;2024-02-28T06:26:21;11.60;;;6.70;;
74465;SDS011;62916;50.044;15.938;2024-02-28T06:28:52;10.80;;;6.70;;
74465;SDS011;62916;50.044;15.938;2024-02-28T06:31:29;12.00;;;7.30;;
74465;SDS011;62916;50.044;15.938;2024-02-28T06:34:00;10.80;;;6.70;;
74465;SDS011;62916;50.044;15.938;2024-02-28T06:36:31;13.00;;;6.90;;
74465;SDS011;62916;50.044;15.938;2024-02-28T06:39:02;9.70;;;6.00;;
74465;SDS011;62916;50.044;15.938;2024-02-28T06:41:33;13.40;;;7.50;;
74465;SDS011;62916;50.044;15.938;2024-02-28T06:44:04;10.50;;;6.40;;
74465;SDS011;62916;50.044;15.938;2024-02-28T06:46:36;10.40;;;7.10;;
74465;SDS011;62916;50.044;15.938;2024-02-28T06:49:07;10.60;;;6.60;;
74465;SDS011;62916;50.044;15.938;2024-02-28T06:51:38;10.10;;;6.80;;
74465;SDS011;62916;50.044;15.938;2024-02-28T06:54:08;12.20;;;7.10;;
74465;SDS011;62916;50.044;15.938;2024-02-28T06:56:39;11.00;;;6.60;;
74465;SDS011;62916;50.044;15.938;2024-02-28T06:59:10;10.30;;;6.50;;
74465;SDS011;62916;50.044;15.938;2024-02-28T07:01:41;10.30;;;6.10;;
74465;SDS011;62916;50.044;15.938;2024-02-28T07:04:12;10.60;;;6.70;;
74465;SDS011;62916;50.044;15.938;2024-02-28T07:06:43;8.60;;;6.00;;
74465;SDS011;62916;50.044;15.938;2024-02-28T07:09:14;9.70;;;6.40;;
74465;SDS011;62916;50.044;15.938;2024-02-28T07:11:45;9.80;;;6.30;;
74465;SDS011;62916;50.044;15.938;2024-02-28T07:14:16;11.20;;;7.10;;
74465;SDS011;62916;50.044;15.938;2024-02-28T07:16:46;10.20;;;6.40;;
74465;SDS011;62916;50.044;15.938;2024-02-28T07:19:19;10.80;;;6.50;;
74465;SDS011;62916;50.044;15.938;2024-02-28T07:21:51;8.30;;;6.00;;
74465;SDS011;62916;50.044;15.938;2024-02-28T07:24:22;7.80;;;6.00;;
74465;SDS011;62916;50.044;15.938;2024-02-28T07:26:53;10.70;;;6.80;;
74465;SDS011;62916;50.044;15.938;2024-02-28T07:29:24;8.90;;;6.00;;
74465;SDS011;62916;50.044;15.938;2024-02-28T07:31:56;10.20;;;6.50;;
74465;SDS011;62916;50.044;15.938;2024-02-28T07:34:27;9.40;;;6.60;;
74465;SDS011;62916;50.044;15.938;2024-02-28T07:36:58;9.30;;;6.70;;
74465;SDS011;62916;50.044;15.938;2024-02-28T07:39:28;8.90;;;5.80;;
74465;SDS011;62916;50.044;15.938;2024-02-28T07:41:59;8.50;;;6.10;;
74465;SDS011;62916;50.044;15.938;2024-02-28T07:44:30;8.90;;;6.10;;
74465;SDS011;62916;50.044;15.938;2024-02-28T07:47:01;11.30;;;6.60;;
74465;SDS011;62916;50.044;15.938;2024-02-28T07:49:34;9.30;;;6.40;;
74465;SDS011;62916;50.044;15.938;2024-02-28T07:52:05;8.50;;;6.30;;
74465;SDS011;62916;50.044;15.938;2024-02-28T07:54:36;8.60;;;6.20;;
74465;SDS011;62916;50.044;15.938;2024-02-28T07:57:10;9.60;;;6.20;;
74465;SDS011;62916;50.044;15.938;2024-02-28T07:59:43;9.80;;;6.10;;
74465;SDS011;62916;50.044;15.938;2024-02-28T08:02:15;9.40;;;6.90;;
74465;SDS011;62916;50.044;15.938;2024-02-28T08:04:48;9.00;;;6.30;;
74465;SDS011;62916;50.044;15.938;2024-02-28T08:07:18;9.60;;;6.90;;
74465;SDS011;62916;50.044;15.938;2024-02-28T08:09:49;9.20;;;6.00;;
74465;SDS011;62916;50.044;15.938;2024-02-28T08:12:20;9.20;;;5.90;;
74465;SDS011;62916;50.044;15.938;2024-02-28T08:14:51;8.30;;;6.00;;
74465;SDS011;62916;50.044;15.938;2024-02-28T08:17:22;8.40;;;6.60;;
74465;SDS011;62916;50.044;15.938;2024-02-28T08:19:53;8.90;;;5.80;;
74465;SDS011;62916;50.044;15.938;2024-02-28T08:22:24;9.50;;;6.10;;
74465;SDS011;62916;50.044;15.938;2024-02-28T08:24:54;10.20;;;5.70;;
74465;SDS011;62916;50.044;15.938;2024-02-28T08:27:25;8.90;;;5.80;;
74465;SDS011;62916;50.044;15.938;2024-02-28T08:32:28;9.70;;;5.90;;
74465;SDS011;62916;50.044;15.938;2024-02-28T08:34:59;9.20;;;5.80;;
74465;SDS011;62916;50.044;15.938;2024-02-28T08:37:30;8.20;;;5.50;;
74465;SDS011;62916;50.044;15.938;2024-02-28T08:40:01;8.60;;;6.00;;
74465;SDS011;62916;50.044;15.938;2024-02-28T08:42:33;8.60;;;6.40;;
74465;SDS011;62916;50.044;15.938;2024-02-28T08:45:05;8.20;;;5.90;;
74465;SDS011;62916;50.044;15.938;2024-02-28T08:47:37;7.60;;;6.00;;
74465;SDS011;62916;50.044;15.938;2024-02-28T08:50:09;7.50;;;5.50;;
74465;SDS011;62916;50.044;15.938;2024-02-28T08:52:40;7.70;;;6.30;;
74465;SDS011;62916;50.044;15.938;2024-02-28T08:55:11;9.30;;;6.00;;
74465;SDS011;62916;50.044;15.938;2024-02-28T08:57:46;7.30;;;5.60;;
74465;SDS011;62916;50.044;15.938;2024-02-28T09:00:18;8.80;;;5.70;;
74465;SDS011;62916;50.044;15.938;2024-02-28T09:02:49;8.20;;;5.70;;
74465;SDS011;62916;50.044;15.938;2024-02-28T09:05:20;7.50;;;5.70;;
74465;SDS011;62916;50.044;15.938;2024-02-28T09:07:51;7.20;;;4.90;;
74465;SDS011;62916;50.044;15.938;2024-02-28T09:10:23;6.80;;;4.90;;
74465;SDS011;62916;50.044;15.938;2024-02-28T09:12:54;7.70;;;6.00;;
74465;SDS011;62916;50.044;15.938;2024-02-28T09:15:24;7.30;;;5.90;;
74465;SDS011;62916;50.044;15.938;2024-02-28T09:17:56;8.10;;;5.60;;
74465;SDS011;62916;50.044;15.938;2024-02-28T09:20:27;6.80;;;5.00;;
74465;SDS011;62916;50.044;15.938;2024-02-28T09:22:58;7.50;;;5.30;;
74465;SDS011;62916;50.044;15.938;2024-02-28T09:25:29;8.80;;;6.20;;
74465;SDS011;62916;50.044;15.938;2024-02-28T09:28:00;6.90;;;5.20;;
74465;SDS011;62916;50.044;15.938;2024-02-28T09:30:31;7.70;;;5.20;;
74465;SDS011;62916;50.044;15.938;2024-02-28T09:33:14;7.90;;;5.60;;
74465;SDS011;62916;50.044;15.938;2024-02-28T09:35:47;7.20;;;5.00;;
74465;SDS011;62916;50.044;15.938;2024-02-28T09:38:18;7.50;;;5.10;;
74465;SDS011;62916;50.044;15.938;2024-02-28T09:40:49;6.50;;;5.20;;
74465;SDS011;62916;50.044;15.938;2024-02-28T09:43:22;7.40;;;5.20;;
74465;SDS011;62916;50.044;15.938;2024-02-28T09:45:59;7.10;;;5.20;;
74465;SDS011;62916;50.044;15.938;2024-02-28T09:48:33;6.40;;;5.00;;
74465;SDS011;62916;50.044;15.938;2024-02-28T09:51:04;7.60;;;5.10;;
74465;SDS011;62916;50.044;15.938;2024-02-28T09:53:37;8.50;;;5.30;;
74465;SDS011;62916;50.044;15.938;2024-02-28T09:56:08;6.90;;;5.00;;
74465;SDS011;62916;50.044;15.938;2024-02-28T09:58:40;7.10;;;5.50;;
74465;SDS011;62916;50.044;15.938;2024-02-28T10:01:12;7.90;;;5.80;;
74465;SDS011;62916;50.044;15.938;2024-02-28T10:03:48;7.10;;;5.50;;
74465;SDS011;62916;50.044;15.938;2024-02-28T10:06:22;6.90;;;5.00;;
74465;SDS011;62916;50.044;15.938;2024-02-28T10:08:53;8.00;;;5.40;;
74465;SDS011;62916;50.044;15.938;2024-02-28T10:11:24;7.10;;;4.80;;
74465;SDS011;62916;50.044;15.938;2024-02-28T10:13:54;8.30;;;5.50;;
74465;SDS011;62916;50.044;15.938;2024-02-28T10:16:27;6.90;;;5.50;;
74465;SDS011;62916;50.044;15.938;2024-02-28T10:18:58;7.40;;;5.00;;
74465;SDS011;62916;50.044;15.938;2024-02-28T10:21:29;7.40;;;5.50;;
74465;SDS011;62916;50.044;15.938;2024-02-28T10:24:01;6.10;;;4.70;;
74465;SDS011;62916;50.044;15.938;2024-02-28T10:26:41;6.60;;;5.00;;
74465;SDS011;62916;50.044;15.938;2024-02-28T10:29:12;7.20;;;5.20;;
74465;SDS011;62916;50.044;15.938;2024-02-28T10:31:43;6.60;;;4.70;;
74465;SDS011;62916;50.044;15.938;2024-02-28T10:34:14;7.50;;;5.80;;
74465;SDS011;62916;50.044;15.938;2024-02-28T10:36:47;8.10;;;5.50;;
74465;SDS011;62916;50.044;15.938;2024-02-28T10:39:18;6.60;;;4.60;;
74465;SDS011;62916;50.044;15.938;2024-02-28T10:41:51;6.40;;;4.80;;
74465;SDS011;62916;50.044;15.938;2024-02-28T10:44:24;6.80;;;5.60;;
74465;SDS011;62916;50.044;15.938;2024-02-28T10:46:56;6.60;;;5.10;;
74465;SDS011;62916;50.044;15.938;2024-02-28T10:49:29;6.60;;;5.00;;
74465;SDS011;62916;50.044;15.938;2024-02-28T10:52:00;7.50;;;4.80;;
74465;SDS011;62916;50.044;15.938;2024-02-28T10:54:35;7.20;;;4.90;;
74465;SDS011;62916;50.044;15.938;2024-02-28T10:57:08;7.40;;;5.10;;
74465;SDS011;62916;50.044;15.938;2024-02-28T10:59:41;7.70;;;5.00;;
74465;SDS011;62916;50.044;15.938;2024-02-28T11:02:14;6.10;;;4.70;;
74465;SDS011;62916;50.044;15.938;2024-02-28T11:04:45;6.10;;;4.70;;
74465;SDS011;62916;50.044;15.938;2024-02-28T11:07:20;6.60;;;5.20;;
74465;SDS011;62916;50.044;15.938;2024-02-28T11:09:54;7.40;;;5.40;;
74465;SDS011;62916;50.044;15.938;2024-02-28T11:12:26;7.40;;;5.40;;
74465;SDS011;62916;50.044;15.938;2024-02-28T11:14:59;6.80;;;4.60;;
74465;SDS011;62916;50.044;15.938;2024-02-28T11:17:31;6.40;;;4.50;;
74465;SDS011;62916;50.044;15.938;2024-02-28T11:20:12;6.80;;;5.20;;
74465;SDS011;62916;50.044;15.938;2024-02-28T11:22:44;6.40;;;5.00;;
74465;SDS011;62916;50.044;15.938;2024-02-28T11:25:15;6.80;;;4.90;;
74465;SDS011;62916;50.044;15.938;2024-02-28T11:27:47;6.50;;;4.70;;
74465;SDS011;62916;50.044;15.938;2024-02-28T11:30:19;6.50;;;4.70;;
74465;SDS011;62916;50.044;15.938;2024-02-28T11:32:53;6.90;;;4.90;;
74465;SDS011;62916;50.044;15.938;2024-02-28T11:35:33;6.20;;;4.80;;
74465;SDS011;62916;50.044;15.938;2024-02-28T11:38:04;6.40;;;4.70;;
74465;SDS011;62916;50.044;15.938;2024-02-28T11:40:38;5.80;;;4.90;;
74465;SDS011;62916;50.044;15.938;2024-02-28T11:43:17;5.90;;;4.70;;
74465;SDS011;62916;50.044;15.938;2024-02-28T11:45:50;6.30;;;4.70;;
74465;SDS011;62916;50.044;15.938;2024-02-28T11:48:21;7.40;;;5.00;;
74465;SDS011;62916;50.044;15.938;2024-02-28T11:50:52;7.30;;;4.70;;
74465;SDS011;62916;50.044;15.938;2024-02-28T11:53:25;6.40;;;4.90;;
74465;SDS011;62916;50.044;15.938;2024-02-28T11:55:56;6.50;;;4.50;;
74465;SDS011;62916;50.044;15.938;2024-02-28T11:58:28;6.70;;;5.00;;
74465;SDS011;62916;50.044;15.938;2024-02-28T12:00:59;5.60;;;4.20;;
74465;SDS011;62916;50.044;15.938;2024-02-28T12:03:30;6.00;;;4.60;;
74465;SDS011;62916;50.044;15.938;2024-02-28T12:06:01;5.40;;;4.70;;
74465;SDS011;62916;50.044;15.938;2024-02-28T12:08:33;5.80;;;4.50;;
74465;SDS011;62916;50.044;15.938;2024-02-28T12:11:08;6.90;;;4.90;;
74465;SDS011;62916;50.044;15.938;2024-02-28T12:13:39;7.20;;;5.20;;
74465;SDS011;62916;50.044;15.938;2024-02-28T12:16:12;6.30;;;4.70;;
74465;SDS011;62916;50.044;15.938;2024-02-28T12:18:43;6.60;;;5.50;;
74465;SDS011;62916;50.044;15.938;2024-02-28T12:21:16;6.40;;;4.60;;
74465;SDS011;62916;50.044;15.938;2024-02-28T12:23:47;5.90;;;5.00;;
74465;SDS011;62916;50.044;15.938;2024-02-28T12:26:18;5.80;;;4.70;;
74465;SDS011;62916;50.044;15.938;2024-02-28T12:28:50;6.60;;;4.20;;
74465;SDS011;62916;50.044;15.938;2024-02-28T12:31:20;6.60;;;4.50;;
74465;SDS011;62916;50.044;15.938;2024-02-28T12:33:51;5.50;;;4.70;;
74465;SDS011;62916;50.044;15.938;2024-02-28T12:36:22;6.20;;;4.60;;
74465;SDS011;62916;50.044;15.938;2024-02-28T12:38:54;5.80;;;4.40;;
74465;SDS011;62916;50.044;15.938;2024-02-28T12:41:26;5.90;;;4.50;;
74465;SDS011;62916;50.044;15.938;2024-02-28T12:43:58;6.00;;;4.20;;
74465;SDS011;62916;50.044;15.938;2024-02-28T12:46:29;6.00;;;4.70;;
74465;SDS011;62916;50.044;15.938;2024-02-28T12:49:02;5.90;;;4.60;;
74465;SDS011;62916;50.044;15.938;2024-02-28T12:51:37;6.00;;;4.90;;
74465;SDS011;62916;50.044;15.938;2024-02-28T12:54:09;6.20;;;4.90;;
74465;SDS011;62916;50.044;15.938;2024-02-28T12:56:42;5.70;;;4.50;;
74465;SDS011;62916;50.044;15.938;2024-02-28T12:59:13;5.40;;;4.20;;
74465;SDS011;62916;50.044;15.938;2024-02-28T13:01:45;5.60;;;4.40;;
74465;SDS011;62916;50.044;15.938;2024-02-28T13:04:16;5.70;;;5.10;;
74465;SDS011;62916;50.044;15.938;2024-02-28T13:06:47;6.00;;;5.20;;
74465;SDS011;62916;50.044;15.938;2024-02-28T13:09:19;5.30;;;4.20;;
74465;SDS011;62916;50.044;15.938;2024-02-28T13:11:51;5.70;;;4.30;;
74465;SDS011;62916;50.044;15.938;2024-02-28T13:14:23;5.20;;;4.40;;
74465;SDS011;62916;50.044;15.938;2024-02-28T13:16:54;6.10;;;4.50;;
74465;SDS011;62916;50.044;15.938;2024-02-28T13:19:30;5.70;;;4.40;;
74465;SDS011;62916;50.044;15.938;2024-02-28T13:22:01;6.30;;;4.30;;
74465;SDS011;62916;50.044;15.938;2024-02-28T13:24:32;5.40;;;4.70;;
74465;SDS011;62916;50.044;15.938;2024-02-28T13:27:05;5.90;;;4.60;;
74465;SDS011;62916;50.044;15.938;2024-02-28T13:29:37;5.40;;;4.40;;
74465;SDS011;62916;50.044;15.938;2024-02-28T13:32:08;5.30;;;4.60;;
74465;SDS011;62916;50.044;15.938;2024-02-28T13:34:39;5.60;;;4.30;;
74465;SDS011;62916;50.044;15.938;2024-02-28T13:37:15;5.70;;;4.00;;
74465;SDS011;62916;50.044;15.938;2024-02-28T13:39:46;8.40;;;4.60;;
74465;SDS011;62916;50.044;15.938;2024-02-28T13:42:19;5.60;;;4.40;;
74465;SDS011;62916;50.044;15.938;2024-02-28T13:44:52;6.20;;;4.60;;
74465;SDS011;62916;50.044;15.938;2024-02-28T13:47:23;4.70;;;4.20;;
74465;SDS011;62916;50.044;15.938;2024-02-28T13:49:54;5.70;;;4.50;;
74465;SDS011;62916;50.044;15.938;2024-02-28T13:52:27;5.80;;;4.40;;
74465;SDS011;62916;50.044;15.938;2024-02-28T13:54:58;5.30;;;4.20;;
74465;SDS011;62916;50.044;15.938;2024-02-28T13:57:29;5.50;;;4.20;;
74465;SDS011;62916;50.044;15.938;2024-02-28T14:00:00;4.80;;;4.00;;
74465;SDS011;62916;50.044;15.938;2024-02-28T14:02:34;7.30;;;4.70;;
74465;SDS011;62916;50.044;15.938;2024-02-28T14:05:06;5.30;;;3.90;;
74465;SDS011;62916;50.044;15.938;2024-02-28T14:07:37;6.40;;;4.50;;
74465;SDS011;62916;50.044;15.938;2024-02-28T14:10:09;6.00;;;4.60;;
74465;SDS011;62916;50.044;15.938;2024-02-28T14:12:40;5.00;;;4.10;;
74465;SDS011;62916;50.044;15.938;2024-02-28T14:15:11;5.50;;;4.10;;
74465;SDS011;62916;50.044;15.938;2024-02-28T14:17:42;5.20;;;4.20;;
74465;SDS011;62916;50.044;15.938;2024-02-28T14:20:13;5.80;;;4.40;;
74465;SDS011;62916;50.044;15.938;2024-02-28T14:22:45;5.60;;;4.80;;
74465;SDS011;62916;50.044;15.938;2024-02-28T14:25:16;5.60;;;4.70;;
74465;SDS011;62916;50.044;15.938;2024-02-28T14:27:49;5.60;;;4.20;;
74465;SDS011;62916;50.044;15.938;2024-02-28T14:30:20;5.30;;;4.10;;
74465;SDS011;62916;50.044;15.938;2024-02-28T14:32:52;5.80;;;3.90;;
74465;SDS011;62916;50.044;15.938;2024-02-28T14:35:23;6.10;;;4.40;;
74465;SDS011;62916;50.044;15.938;2024-02-28T14:37:54;5.30;;;4.30;;
74465;SDS011;62916;50.044;15.938;2024-02-28T14:40:25;5.50;;;4.00;;
74465;SDS011;62916;50.044;15.938;2024-02-28T14:42:56;5.60;;;4.50;;
74465;SDS011;62916;50.044;15.938;2024-02-28T14:45:26;5.50;;;4.40;;
74465;SDS011;62916;50.044;15.938;2024-02-28T14:48:00;4.60;;;4.00;;
74465;SDS011;62916;50.044;15.938;2024-02-28T14:50:33;5.70;;;3.90;;
74465;SDS011;62916;50.044;15.938;2024-02-28T14:53:05;5.80;;;4.20;;
74465;SDS011;62916;50.044;15.938;2024-02-28T14:55:36;5.50;;;4.40;;
74465;SDS011;62916;50.044;15.938;2024-02-28T14:58:07;4.40;;;3.90;;
74465;SDS011;62916;50.044;15.938;2024-02-28T15:00:38;5.50;;;4.10;;